Warren Jr — WDH4232 — position and weather

sailwx.info

Track history (hours):
 
Tides and Currents Weather Stations Pressure Air Temp Water Temp Dewpoint Dewpoint Depression Visibility Wind Speed Wind Dir Waves Ship Positions

Warren Jr

Owner: Warren Jr, LLC, Cape May, NJ. More information available from US FCC via Universal Licensing System and Coast Guard Vessel Documentation Center.

Last reported at 2017-Oct-19 23:31 UTC. Time now 2017-Oct-19 23:33 UTC.
Position N 42°19' W 070°53'.

Length 46 m; draft 3.2 m.

MMSI: 367615560.

Date/timePositionNaut miles runAvg speedWind from/ knotsBaromVisibWave heightAir tempDewpointWater temp
2017-Oct-19 23:31N 42°19' W 070°53'510.2
2017-Oct-19 23:01N 42°18' W 070°47'5 9.4
2017-Oct-19 22:31N 42°16' W 070°41'510.4
2017-Oct-19 21:59N 42°11' W 070°38'63 6.4
2017-Oct-19 12:02N 41°09' W 070°57'0 2.2
2017-Oct-19 12:00N 41°09' W 070°57'0 0.3
2017-Oct-19 11:30N 41°09' W 070°56'0 0.3
2017-Oct-19 11:00N 41°09' W 070°57'0 0.7
2017-Oct-19 10:30N 41°09' W 070°57'0 0.7
2017-Oct-19 09:52N 41°09' W 070°57'0 1.1
2017-Oct-19 09:30N 41°08' W 070°57'44 4.6
2017-Oct-19 00:02N 41°47' W 070°29'0 8.3
2017-Oct-19 00:00N 41°47' W 070°29'5 9.1
2017-Oct-18 23:29N 41°51' W 070°26'29 1.1
2017-Oct-17 21:28N 42°19' W 070°13'1 1.8
2017-Oct-17 20:50N 42°19' W 070°14'0 1.1
2017-Oct-17 20:31N 42°19' W 070°14'3 4.9
2017-Oct-17 20:00N 42°19' W 070°17'3 3.4
2017-Oct-17 19:16N 42°19' W 070°21'0 1.5
2017-Oct-17 18:58N 42°20' W 070°20'0 0.0
2017-Oct-17 18:28N 42°20' W 070°20'3 5.5
2017-Oct-17 18:00N 42°20' W 070°24'3 4.9
2017-Oct-17 17:28N 42°20' W 070°27'0 1.0
2017-Oct-17 17:00N 42°20' W 070°27'0 0.0
2017-Oct-17 16:28N 42°20' W 070°27'4 9.2
2017-Oct-17 16:00N 42°20' W 070°33'1 2.4
2017-Oct-17 15:25N 42°19' W 070°34'1 2.8
2017-Oct-17 15:00N 42°20' W 070°34'2 4.0
2017-Oct-17 14:30N 42°21' W 070°37'3 5.8
2017-Oct-17 14:00N 42°21' W 070°41'1 1.7
2017-Oct-17 13:29N 42°20' W 070°41'1 2.4
2017-Oct-17 13:00N 42°21' W 070°41'0 0.2
2017-Oct-17 12:30N 42°21' W 070°41'0 0.1
2017-Oct-17 12:00N 42°21' W 070°41'2 5.0
2017-Oct-17 11:30N 42°23' W 070°40'2 4.8
2017-Oct-17 11:00N 42°21' W 070°41'3 4.6
2017-Oct-17 10:26N 42°18' W 070°41'2 4.0
2017-Oct-17 10:00N 42°20' W 070°41'2 4.9
2017-Oct-17 09:31N 42°22' W 070°39'2 3.9
2017-Oct-17 09:00N 42°20' W 070°39'3 5.2
2017-Oct-17 08:30N 42°17' W 070°38'2 4.8
2017-Oct-17 08:00N 42°15' W 070°38'2 0.1
2017-Oct-16 04:52N 42°15' W 070°40'2 6.0
2017-Oct-16 04:31N 42°17' W 070°41'3 6.5
2017-Oct-16 04:00N 42°18' W 070°46'4 7.3
2017-Oct-16 03:30N 42°19' W 070°50'5 9.9
2017-Oct-16 03:00N 42°20' W 070°57'5 9.1
2017-Oct-16 02:31N 42°22' W 071°03'1 2.4
2017-Oct-16 02:00N 42°23' W 071°03'0 0.0
2017-Oct-16 01:30N 42°23' W 071°03'0 0.0
2017-Oct-16 01:00N 42°23' W 071°03'0 0.0
2017-Oct-16 00:30N 42°23' W 071°03'0 0.0
2017-Oct-16 00:00N 42°23' W 071°03'0 0.0
2017-Oct-15 23:27N 42°23' W 071°03'0 0.0
2017-Oct-15 22:57N 42°23' W 071°03'0 0.0
2017-Oct-15 22:30N 42°23' W 071°03'0 0.0
2017-Oct-15 22:00N 42°23' W 071°03'0 0.0
2017-Oct-15 21:30N 42°23' W 071°03'0 0.0
2017-Oct-15 21:00N 42°23' W 071°03'0 0.0
2017-Oct-15 20:30N 42°23' W 071°03'0 0.0
2017-Oct-15 20:00N 42°23' W 071°03'0 0.0
2017-Oct-15 19:30N 42°23' W 071°03'0 0.0
2017-Oct-15 19:00N 42°23' W 071°03'0 0.0
2017-Oct-15 18:30N 42°23' W 071°03'0 0.0
2017-Oct-15 18:00N 42°23' W 071°03'0 0.0
2017-Oct-15 17:30N 42°23' W 071°03'0 0.0
2017-Oct-15 17:00N 42°23' W 071°03'0 0.0
2017-Oct-15 16:30N 42°23' W 071°03'0 0.0
2017-Oct-15 16:00N 42°23' W 071°03'0 0.0
2017-Oct-15 15:30N 42°23' W 071°03'0 0.0
2017-Oct-15 15:00N 42°23' W 071°03'0 0.0
2017-Oct-15 14:00N 42°23' W 071°03'0 0.0
2017-Oct-15 13:30N 42°23' W 071°03'0 0.0
2017-Oct-15 12:57N 42°23' W 071°03'0 0.0
2017-Oct-15 12:30N 42°23' W 071°03'0 0.0
2017-Oct-15 12:00N 42°23' W 071°03'0 0.0
2017-Oct-15 11:30N 42°23' W 071°03'0 0.0
2017-Oct-15 11:00N 42°23' W 071°03'0 0.0
2017-Oct-15 10:27N 42°23' W 071°03'0 0.0
2017-Oct-15 10:00N 42°23' W 071°03'0 0.0
2017-Oct-15 09:30N 42°23' W 071°03'0 0.0
2017-Oct-15 09:00N 42°23' W 071°03'0 0.0
2017-Oct-15 08:30N 42°23' W 071°03'0 0.0
2017-Oct-15 08:00N 42°23' W 071°03'0 0.0
2017-Oct-15 07:30N 42°23' W 071°03'0 0.0
2017-Oct-15 07:00N 42°23' W 071°03'0 0.0
2017-Oct-15 06:30N 42°23' W 071°03'0 0.0
2017-Oct-15 06:00N 42°23' W 071°03'0 0.0
2017-Oct-15 05:30N 42°23' W 071°03'0 0.0
2017-Oct-15 05:00N 42°23' W 071°03'0 0.0
2017-Oct-15 04:30N 42°23' W 071°03'0 0.0
2017-Oct-15 04:00N 42°23' W 071°03'0 0.0
2017-Oct-15 03:30N 42°23' W 071°03'0 0.0
2017-Oct-15 03:00N 42°23' W 071°03'0 0.0
2017-Oct-15 02:30N 42°23' W 071°03'0 0.0
2017-Oct-15 02:00N 42°23' W 071°03'0 0.0
2017-Oct-15 01:30N 42°23' W 071°03'0 0.0
2017-Oct-15 01:00N 42°23' W 071°03'0 0.0
2017-Oct-15 00:30N 42°23' W 071°03'0 0.0
2017-Oct-15 00:00N 42°23' W 071°03'0 0.0
2017-Oct-14 23:30N 42°23' W 071°03'0 0.0
2017-Oct-14 23:00N 42°23' W 071°03'0 0.0
2017-Oct-14 22:30N 42°23' W 071°03'0 0.0
2017-Oct-14 22:00N 42°23' W 071°03'0 0.0
2017-Oct-14 21:30N 42°23' W 071°03'0 0.0
2017-Oct-14 21:00N 42°23' W 071°03'0 0.0
2017-Oct-14 20:30N 42°23' W 071°03'0 0.0
2017-Oct-14 20:00N 42°23' W 071°03'0 0.0
2017-Oct-14 19:30N 42°23' W 071°03'0 0.0
2017-Oct-14 19:00N 42°23' W 071°03'0 0.0
2017-Oct-14 18:30N 42°23' W 071°03'0 0.0
2017-Oct-14 18:00N 42°23' W 071°03'0 0.0
2017-Oct-14 17:27N 42°23' W 071°03'0 0.0
2017-Oct-14 17:00N 42°23' W 071°03'0 0.0
2017-Oct-14 16:30N 42°23' W 071°03'0 0.0
2017-Oct-14 16:00N 42°23' W 071°03'0 0.0
2017-Oct-14 15:30N 42°23' W 071°03'0 0.0
2017-Oct-14 15:00N 42°23' W 071°03'0 0.0
2017-Oct-14 14:30N 42°23' W 071°03'0 0.0
2017-Oct-14 14:00N 42°23' W 071°03'0 0.0
2017-Oct-14 13:27N 42°23' W 071°03'0 0.0
2017-Oct-14 13:00N 42°23' W 071°03'0 0.0
2017-Oct-14 12:30N 42°23' W 071°03'0 0.0
2017-Oct-14 12:00N 42°23' W 071°03'0 0.0
2017-Oct-14 11:27N 42°23' W 071°03'0 0.0
2017-Oct-14 11:00N 42°23' W 071°03'0 0.0
2017-Oct-14 10:30N 42°23' W 071°03'0 0.0
2017-Oct-14 10:00N 42°23' W 071°03'0 0.0
2017-Oct-14 09:30N 42°23' W 071°03'0 0.0
2017-Oct-14 09:00N 42°23' W 071°03'0 0.0
2017-Oct-14 08:30N 42°23' W 071°03'0 0.0
2017-Oct-14 08:00N 42°23' W 071°03'0 0.0
2017-Oct-14 07:30N 42°23' W 071°03'0 0.0
2017-Oct-14 07:00N 42°23' W 071°03'0 0.0
2017-Oct-14 06:30N 42°23' W 071°03'0 0.0
2017-Oct-14 06:00N 42°23' W 071°03'0 0.0
2017-Oct-14 05:30N 42°23' W 071°03'0 0.0
2017-Oct-14 05:00N 42°23' W 071°03'0 0.0
2017-Oct-14 04:30N 42°23' W 071°03'0 0.0
2017-Oct-14 04:00N 42°23' W 071°03'0 0.0
2017-Oct-14 03:30N 42°23' W 071°03'0 0.0
2017-Oct-14 03:00N 42°23' W 071°03'0 0.0
2017-Oct-14 02:30N 42°23' W 071°03'0 0.0
2017-Oct-14 02:00N 42°23' W 071°03'0 0.0
2017-Oct-13 23:18N 42°23' W 071°03'0 0.0
2017-Oct-13 23:00N 42°23' W 071°03'0 0.0
2017-Oct-13 22:30N 42°23' W 071°03'0 0.0
2017-Oct-13 22:00N 42°23' W 071°03'0 0.0
2017-Oct-13 21:30N 42°23' W 071°03'0 0.0
2017-Oct-13 21:00N 42°23' W 071°03'0 0.0
2017-Oct-13 20:30N 42°23' W 071°03'0 0.0
2017-Oct-13 20:00N 42°23' W 071°03'0 0.0
2017-Oct-13 19:30N 42°23' W 071°03'0 0.0
2017-Oct-13 19:00N 42°23' W 071°03'0 0.0
2017-Oct-13 18:30N 42°23' W 071°03'0 0.0
2017-Oct-13 18:00N 42°23' W 071°03'0 0.0
2017-Oct-13 17:30N 42°23' W 071°03'0 0.0
2017-Oct-13 17:00N 42°23' W 071°03'0 0.0
2017-Oct-13 16:30N 42°23' W 071°03'0 0.0
2017-Oct-13 16:00N 42°23' W 071°03'0 0.0
2017-Oct-13 15:30N 42°23' W 071°03'0 0.0
2017-Oct-13 15:00N 42°23' W 071°03'0 0.0
2017-Oct-13 14:24N 42°23' W 071°03'0 0.0
2017-Oct-13 14:00N 42°23' W 071°03'0 0.0
2017-Oct-13 13:27N 42°23' W 071°03'0 0.0
2017-Oct-13 12:57N 42°23' W 071°03'0 0.0
2017-Oct-13 12:30N 42°23' W 071°03'0 0.0
2017-Oct-13 12:00N 42°23' W 071°03'0 0.0
2017-Oct-13 11:30N 42°23' W 071°03'0 0.0
2017-Oct-13 11:00N 42°23' W 071°03'0 0.0
2017-Oct-13 10:30N 42°23' W 071°03'0 0.0
2017-Oct-13 10:00N 42°23' W 071°03'0 0.0
2017-Oct-13 09:30N 42°23' W 071°03'0 0.0
2017-Oct-13 09:00N 42°23' W 071°03'0 0.0
2017-Oct-13 08:30N 42°23' W 071°03'0 0.0
2017-Oct-13 08:00N 42°23' W 071°03'0 0.0
2017-Oct-13 07:30N 42°23' W 071°03'0 0.0
2017-Oct-13 07:00N 42°23' W 071°03'0 0.0
2017-Oct-13 06:30N 42°23' W 071°03'0 0.0
2017-Oct-13 06:00N 42°23' W 071°03'0 0.0
2017-Oct-13 05:30N 42°23' W 071°03'0 0.0
2017-Oct-13 05:00N 42°23' W 071°03'0 0.0
2017-Oct-13 04:30N 42°23' W 071°03'0 0.0
2017-Oct-13 04:00N 42°23' W 071°03'0 0.0
2017-Oct-13 03:30N 42°23' W 071°03'0 0.0
2017-Oct-13 03:00N 42°23' W 071°03'0 0.0
2017-Oct-13 02:30N 42°23' W 071°03'0 0.0
2017-Oct-13 02:00N 42°23' W 071°03'0 0.0
2017-Oct-13 01:30N 42°23' W 071°03'0 0.0
2017-Oct-13 01:00N 42°23' W 071°03'0 0.0
2017-Oct-13 00:30N 42°23' W 071°03'0 0.0
2017-Oct-13 00:00N 42°23' W 071°03'0 0.0
2017-Oct-12 23:30N 42°23' W 071°03'0 0.0
2017-Oct-12 23:00N 42°23' W 071°03'0 0.0
2017-Oct-12 22:30N 42°23' W 071°03'0 0.0
2017-Oct-12 22:00N 42°23' W 071°03'0 0.0
2017-Oct-12 21:30N 42°23' W 071°03'0 0.0
2017-Oct-12 21:00N 42°23' W 071°03'0 0.0
2017-Oct-12 20:30N 42°23' W 071°03'0 0.0
2017-Oct-12 20:00N 42°23' W 071°03'0 0.0
2017-Oct-12 19:30N 42°23' W 071°03'0 0.0
2017-Oct-12 19:00N 42°23' W 071°03'0 0.0
2017-Oct-12 18:30N 42°23' W 071°03'0 0.0
2017-Oct-12 18:00N 42°23' W 071°03'0 0.0
2017-Oct-12 17:30N 42°23' W 071°03'0 0.0
2017-Oct-12 17:00N 42°23' W 071°03'0 0.0
2017-Oct-12 16:30N 42°23' W 071°03'0 0.0
2017-Oct-12 16:00N 42°23' W 071°03'0 0.0
2017-Oct-12 15:21N 42°23' W 071°03'0 0.0
2017-Oct-12 15:00N 42°23' W 071°03'0 0.0
2017-Oct-12 14:27N 42°23' W 071°03'0 0.0
2017-Oct-12 14:00N 42°23' W 071°03'0 0.0
2017-Oct-12 13:30N 42°23' W 071°03'0 0.0
2017-Oct-12 13:00N 42°23' W 071°03'0 0.0
2017-Oct-12 12:30N 42°23' W 071°03'0 0.0
2017-Oct-12 12:00N 42°23' W 071°03'0 0.0
2017-Oct-12 11:30N 42°23' W 071°03'0 0.0
2017-Oct-12 11:00N 42°23' W 071°03'0 0.0
2017-Oct-12 10:27N 42°23' W 071°03'0 0.0
2017-Oct-12 10:00N 42°23' W 071°03'0 0.0
2017-Oct-12 09:30N 42°23' W 071°03'0 0.0
2017-Oct-12 09:00N 42°23' W 071°03'0 0.0
2017-Oct-12 08:30N 42°23' W 071°03'0 0.0
2017-Oct-12 08:00N 42°23' W 071°03'0 0.0
2017-Oct-12 07:27N 42°23' W 071°03'0 0.0
2017-Oct-12 07:00N 42°23' W 071°03'0 0.0
2017-Oct-12 06:30N 42°23' W 071°03'0 0.0
2017-Oct-12 06:00N 42°23' W 071°03'0 0.0
2017-Oct-12 05:30N 42°23' W 071°03'0 0.0
2017-Oct-12 05:00N 42°23' W 071°03'0 0.0
2017-Oct-12 04:30N 42°23' W 071°03'0 0.0
2017-Oct-12 04:00N 42°23' W 071°03'0 0.0
2017-Oct-12 03:30N 42°23' W 071°03'0 0.0
2017-Oct-12 03:00N 42°23' W 071°03'0 0.0
2017-Oct-12 02:30N 42°23' W 071°03'0 0.0
2017-Oct-12 02:00N 42°23' W 071°03'0 0.0
2017-Oct-12 01:27N 42°23' W 071°03'0 0.0
2017-Oct-12 01:00N 42°23' W 071°03'0 0.0
2017-Oct-12 00:30N 42°23' W 071°03'0 0.0
2017-Oct-12 00:00N 42°23' W 071°03'0 0.0
2017-Oct-11 23:30N 42°23' W 071°03'0 0.0
2017-Oct-11 22:57N 42°23' W 071°03'0 0.0
2017-Oct-11 22:30N 42°23' W 071°03'0 0.0
2017-Oct-11 22:00N 42°23' W 071°03'0 0.0
2017-Oct-11 21:30N 42°23' W 071°03'0 0.0
2017-Oct-11 21:00N 42°23' W 071°03'0 0.0
2017-Oct-11 20:30N 42°23' W 071°03'0 0.0
2017-Oct-11 20:00N 42°23' W 071°03'0 0.0
2017-Oct-11 19:30N 42°23' W 071°03'0 0.0
2017-Oct-11 19:00N 42°23' W 071°03'0 0.0
2017-Oct-11 18:30N 42°23' W 071°03'0 0.0
2017-Oct-11 18:00N 42°23' W 071°03'0 0.0
2017-Oct-11 17:30N 42°23' W 071°03'0 0.0
2017-Oct-11 17:00N 42°23' W 071°03'0 0.0
2017-Oct-11 00:00N 42°23' W 071°03'0 0.0
2017-Oct-10 23:30N 42°23' W 071°03'0 0.0
2017-Oct-10 23:00N 42°23' W 071°03'0 0.0
2017-Oct-10 22:30N 42°23' W 071°03'0 0.0
2017-Oct-10 22:00N 42°23' W 071°03'0 0.0
2017-Oct-10 21:30N 42°23' W 071°03'0 0.0
2017-Oct-10 21:00N 42°23' W 071°03'0 0.0
2017-Oct-10 20:30N 42°23' W 071°03'0 0.0
2017-Oct-10 20:00N 42°23' W 071°03'0 0.0
2017-Oct-10 19:30N 42°23' W 071°03'0 0.0
2017-Oct-10 19:00N 42°23' W 071°03'0 0.0
2017-Oct-10 18:30N 42°23' W 071°03'0 0.0
2017-Oct-10 18:00N 42°23' W 071°03'0 0.0
2017-Oct-10 17:30N 42°23' W 071°03'0 0.0
2017-Oct-10 17:00N 42°23' W 071°03'0 0.0
2017-Oct-10 16:30N 42°23' W 071°03'0 0.0
2017-Oct-10 16:00N 42°23' W 071°03'0 0.0
2017-Oct-10 15:30N 42°23' W 071°03'0 0.0
2017-Oct-10 15:00N 42°23' W 071°03'0 0.0
2017-Oct-10 14:00N 42°23' W 071°03'0 0.0
2017-Oct-10 13:30N 42°23' W 071°03'0 0.0
2017-Oct-10 13:00N 42°23' W 071°03'0 0.0
2017-Oct-10 12:27N 42°23' W 071°03'0 0.0
2017-Oct-10 12:00N 42°23' W 071°03'0 0.0
2017-Oct-10 11:30N 42°23' W 071°03'0 0.0
2017-Oct-10 10:57N 42°23' W 071°03'0 0.0
2017-Oct-10 10:30N 42°23' W 071°03'0 0.0
2017-Oct-10 10:00N 42°23' W 071°03'0 0.0
2017-Oct-10 09:30N 42°23' W 071°03'0 0.0
2017-Oct-10 09:00N 42°23' W 071°03'0 0.0
2017-Oct-10 08:30N 42°23' W 071°03'0 0.0
2017-Oct-10 08:00N 42°23' W 071°03'0 0.0
2017-Oct-10 07:30N 42°23' W 071°03'0 0.0
2017-Oct-10 07:00N 42°23' W 071°03'0 0.0
2017-Oct-10 06:30N 42°23' W 071°03'0 0.0
2017-Oct-10 06:00N 42°23' W 071°03'0 0.0
2017-Oct-10 05:31N 42°23' W 071°03'0 0.0
2017-Oct-10 04:57N 42°23' W 071°03'0 0.0
2017-Oct-10 04:30N 42°23' W 071°03'0 0.0
2017-Oct-10 04:00N 42°23' W 071°03'0 0.0
2017-Oct-10 03:30N 42°23' W 071°03'0 0.0
2017-Oct-10 02:54N 42°23' W 071°03'0 0.0
2017-Oct-10 02:30N 42°23' W 071°03'0 0.0
2017-Oct-10 01:57N 42°23' W 071°03'0 0.0
2017-Oct-10 01:30N 42°23' W 071°03'0 0.0
2017-Oct-10 01:00N 42°23' W 071°03'0 0.0
2017-Oct-10 00:30N 42°23' W 071°03'0 0.0
2017-Oct-09 23:57N 42°23' W 071°03'  
Track history (hours):
 
Tides and Currents Weather Stations Pressure Air Temp Water Temp Dewpoint Dewpoint Depression Visibility Wind Speed Wind Dir Waves Ship Positions

Warren Jr

Owner: Warren Jr, LLC, Cape May, NJ. More information available from US FCC via Universal Licensing System and Coast Guard Vessel Documentation Center.

Last reported at 2017-Oct-19 23:31 UTC. Time now 2017-Oct-19 23:33 UTC.
Position N 42°19' W 070°53'.

Length 46 m; draft 3.2 m.

MMSI: 367615560.

Date/timePositionNaut miles runAvg speedWind from/ knotsBaromVisibWave heightAir tempDewpointWater temp
2017-Oct-19 23:31N 42°19' W 070°53'510.2
2017-Oct-19 23:01N 42°18' W 070°47'5 9.4
2017-Oct-19 22:31N 42°16' W 070°41'510.4
2017-Oct-19 21:59N 42°11' W 070°38'63 6.4
2017-Oct-19 12:02N 41°09' W 070°57'0 2.2
2017-Oct-19 12:00N 41°09' W 070°57'0 0.3
2017-Oct-19 11:30N 41°09' W 070°56'0 0.3
2017-Oct-19 11:00N 41°09' W 070°57'0 0.7
2017-Oct-19 10:30N 41°09' W 070°57'0 0.7
2017-Oct-19 09:52N 41°09' W 070°57'0 1.1
2017-Oct-19 09:30N 41°08' W 070°57'44 4.6
2017-Oct-19 00:02N 41°47' W 070°29'0 8.3
2017-Oct-19 00:00N 41°47' W 070°29'5 9.1
2017-Oct-18 23:29N 41°51' W 070°26'29 1.1
2017-Oct-17 21:28N 42°19' W 070°13'1 1.8
2017-Oct-17 20:50N 42°19' W 070°14'0 1.1
2017-Oct-17 20:31N 42°19' W 070°14'3 4.9
2017-Oct-17 20:00N 42°19' W 070°17'3 3.4
2017-Oct-17 19:16N 42°19' W 070°21'0 1.5
2017-Oct-17 18:58N 42°20' W 070°20'0 0.0
2017-Oct-17 18:28N 42°20' W 070°20'3 5.5
2017-Oct-17 18:00N 42°20' W 070°24'3 4.9
2017-Oct-17 17:28N 42°20' W 070°27'0 1.0
2017-Oct-17 17:00N 42°20' W 070°27'0 0.0
2017-Oct-17 16:28N 42°20' W 070°27'4 9.2
2017-Oct-17 16:00N 42°20' W 070°33'1 2.4
2017-Oct-17 15:25N 42°19' W 070°34'1 2.8
2017-Oct-17 15:00N 42°20' W 070°34'2 4.0
2017-Oct-17 14:30N 42°21' W 070°37'3 5.8
2017-Oct-17 14:00N 42°21' W 070°41'1 1.7
2017-Oct-17 13:29N 42°20' W 070°41'1 2.4
2017-Oct-17 13:00N 42°21' W 070°41'0 0.2
2017-Oct-17 12:30N 42°21' W 070°41'0 0.1
2017-Oct-17 12:00N 42°21' W 070°41'2 5.0
2017-Oct-17 11:30N 42°23' W 070°40'2 4.8
2017-Oct-17 11:00N 42°21' W 070°41'3 4.6
2017-Oct-17 10:26N 42°18' W 070°41'2 4.0
2017-Oct-17 10:00N 42°20' W 070°41'2 4.9
2017-Oct-17 09:31N 42°22' W 070°39'2 3.9
2017-Oct-17 09:00N 42°20' W 070°39'3 5.2
2017-Oct-17 08:30N 42°17' W 070°38'2 4.8
2017-Oct-17 08:00N 42°15' W 070°38'2 0.1
2017-Oct-16 04:52N 42°15' W 070°40'2 6.0
2017-Oct-16 04:31N 42°17' W 070°41'3 6.5
2017-Oct-16 04:00N 42°18' W 070°46'4 7.3
2017-Oct-16 03:30N 42°19' W 070°50'5 9.9
2017-Oct-16 03:00N 42°20' W 070°57'5 9.1
2017-Oct-16 02:31N 42°22' W 071°03'1 2.4
2017-Oct-16 02:00N 42°23' W 071°03'0 0.0
2017-Oct-16 01:30N 42°23' W 071°03'0 0.0
2017-Oct-16 01:00N 42°23' W 071°03'0 0.0
2017-Oct-16 00:30N 42°23' W 071°03'0 0.0
2017-Oct-16 00:00N 42°23' W 071°03'0 0.0
2017-Oct-15 23:27N 42°23' W 071°03'0 0.0
2017-Oct-15 22:57N 42°23' W 071°03'0 0.0
2017-Oct-15 22:30N 42°23' W 071°03'0 0.0
2017-Oct-15 22:00N 42°23' W 071°03'0 0.0
2017-Oct-15 21:30N 42°23' W 071°03'0 0.0
2017-Oct-15 21:00N 42°23' W 071°03'0 0.0
2017-Oct-15 20:30N 42°23' W 071°03'0 0.0
2017-Oct-15 20:00N 42°23' W 071°03'0 0.0
2017-Oct-15 19:30N 42°23' W 071°03'0 0.0
2017-Oct-15 19:00N 42°23' W 071°03'0 0.0
2017-Oct-15 18:30N 42°23' W 071°03'0 0.0
2017-Oct-15 18:00N 42°23' W 071°03'0 0.0
2017-Oct-15 17:30N 42°23' W 071°03'0 0.0
2017-Oct-15 17:00N 42°23' W 071°03'0 0.0
2017-Oct-15 16:30N 42°23' W 071°03'0 0.0
2017-Oct-15 16:00N 42°23' W 071°03'0 0.0
2017-Oct-15 15:30N 42°23' W 071°03'0 0.0
2017-Oct-15 15:00N 42°23' W 071°03'0 0.0
2017-Oct-15 14:00N 42°23' W 071°03'0 0.0
2017-Oct-15 13:30N 42°23' W 071°03'0 0.0
2017-Oct-15 12:57N 42°23' W 071°03'0 0.0
2017-Oct-15 12:30N 42°23' W 071°03'0 0.0
2017-Oct-15 12:00N 42°23' W 071°03'0 0.0
2017-Oct-15 11:30N 42°23' W 071°03'0 0.0
2017-Oct-15 11:00N 42°23' W 071°03'0 0.0
2017-Oct-15 10:27N 42°23' W 071°03'0 0.0
2017-Oct-15 10:00N 42°23' W 071°03'0 0.0
2017-Oct-15 09:30N 42°23' W 071°03'0 0.0
2017-Oct-15 09:00N 42°23' W 071°03'0 0.0
2017-Oct-15 08:30N 42°23' W 071°03'0 0.0
2017-Oct-15 08:00N 42°23' W 071°03'0 0.0
2017-Oct-15 07:30N 42°23' W 071°03'0 0.0
2017-Oct-15 07:00N 42°23' W 071°03'0 0.0
2017-Oct-15 06:30N 42°23' W 071°03'0 0.0
2017-Oct-15 06:00N 42°23' W 071°03'0 0.0
2017-Oct-15 05:30N 42°23' W 071°03'0 0.0
2017-Oct-15 05:00N 42°23' W 071°03'0 0.0
2017-Oct-15 04:30N 42°23' W 071°03'0 0.0
2017-Oct-15 04:00N 42°23' W 071°03'0 0.0
2017-Oct-15 03:30N 42°23' W 071°03'0 0.0
2017-Oct-15 03:00N 42°23' W 071°03'0 0.0
2017-Oct-15 02:30N 42°23' W 071°03'0 0.0
2017-Oct-15 02:00N 42°23' W 071°03'0 0.0
2017-Oct-15 01:30N 42°23' W 071°03'0 0.0
2017-Oct-15 01:00N 42°23' W 071°03'0 0.0
2017-Oct-15 00:30N 42°23' W 071°03'0 0.0
2017-Oct-15 00:00N 42°23' W 071°03'0 0.0
2017-Oct-14 23:30N 42°23' W 071°03'0 0.0
2017-Oct-14 23:00N 42°23' W 071°03'0 0.0
2017-Oct-14 22:30N 42°23' W 071°03'0 0.0
2017-Oct-14 22:00N 42°23' W 071°03'0 0.0
2017-Oct-14 21:30N 42°23' W 071°03'0 0.0
2017-Oct-14 21:00N 42°23' W 071°03'0 0.0
2017-Oct-14 20:30N 42°23' W 071°03'0 0.0
2017-Oct-14 20:00N 42°23' W 071°03'0 0.0
2017-Oct-14 19:30N 42°23' W 071°03'0 0.0
2017-Oct-14 19:00N 42°23' W 071°03'0 0.0
2017-Oct-14 18:30N 42°23' W 071°03'0 0.0
2017-Oct-14 18:00N 42°23' W 071°03'0 0.0
2017-Oct-14 17:27N 42°23' W 071°03'0 0.0
2017-Oct-14 17:00N 42°23' W 071°03'0 0.0
2017-Oct-14 16:30N 42°23' W 071°03'0 0.0
2017-Oct-14 16:00N 42°23' W 071°03'0 0.0
2017-Oct-14 15:30N 42°23' W 071°03'0 0.0
2017-Oct-14 15:00N 42°23' W 071°03'0 0.0
2017-Oct-14 14:30N 42°23' W 071°03'0 0.0
2017-Oct-14 14:00N 42°23' W 071°03'0 0.0
2017-Oct-14 13:27N 42°23' W 071°03'0 0.0
2017-Oct-14 13:00N 42°23' W 071°03'0 0.0
2017-Oct-14 12:30N 42°23' W 071°03'0 0.0
2017-Oct-14 12:00N 42°23' W 071°03'0 0.0
2017-Oct-14 11:27N 42°23' W 071°03'0 0.0
2017-Oct-14 11:00N 42°23' W 071°03'0 0.0
2017-Oct-14 10:30N 42°23' W 071°03'0 0.0
2017-Oct-14 10:00N 42°23' W 071°03'0 0.0
2017-Oct-14 09:30N 42°23' W 071°03'0 0.0
2017-Oct-14 09:00N 42°23' W 071°03'0 0.0
2017-Oct-14 08:30N 42°23' W 071°03'0 0.0
2017-Oct-14 08:00N 42°23' W 071°03'0 0.0
2017-Oct-14 07:30N 42°23' W 071°03'0 0.0
2017-Oct-14 07:00N 42°23' W 071°03'0 0.0
2017-Oct-14 06:30N 42°23' W 071°03'0 0.0
2017-Oct-14 06:00N 42°23' W 071°03'0 0.0
2017-Oct-14 05:30N 42°23' W 071°03'0 0.0
2017-Oct-14 05:00N 42°23' W 071°03'0 0.0
2017-Oct-14 04:30N 42°23' W 071°03'0 0.0
2017-Oct-14 04:00N 42°23' W 071°03'0 0.0
2017-Oct-14 03:30N 42°23' W 071°03'0 0.0
2017-Oct-14 03:00N 42°23' W 071°03'0 0.0
2017-Oct-14 02:30N 42°23' W 071°03'0 0.0
2017-Oct-14 02:00N 42°23' W 071°03'0 0.0
2017-Oct-13 23:18N 42°23' W 071°03'0 0.0
2017-Oct-13 23:00N 42°23' W 071°03'0 0.0
2017-Oct-13 22:30N 42°23' W 071°03'0 0.0
2017-Oct-13 22:00N 42°23' W 071°03'0 0.0
2017-Oct-13 21:30N 42°23' W 071°03'0 0.0
2017-Oct-13 21:00N 42°23' W 071°03'0 0.0
2017-Oct-13 20:30N 42°23' W 071°03'0 0.0
2017-Oct-13 20:00N 42°23' W 071°03'0 0.0
2017-Oct-13 19:30N 42°23' W 071°03'0 0.0
2017-Oct-13 19:00N 42°23' W 071°03'0 0.0
2017-Oct-13 18:30N 42°23' W 071°03'0 0.0
2017-Oct-13 18:00N 42°23' W 071°03'0 0.0
2017-Oct-13 17:30N 42°23' W 071°03'0 0.0
2017-Oct-13 17:00N 42°23' W 071°03'0 0.0
2017-Oct-13 16:30N 42°23' W 071°03'0 0.0
2017-Oct-13 16:00N 42°23' W 071°03'0 0.0
2017-Oct-13 15:30N 42°23' W 071°03'0 0.0
2017-Oct-13 15:00N 42°23' W 071°03'0 0.0
2017-Oct-13 14:24N 42°23' W 071°03'0 0.0
2017-Oct-13 14:00N 42°23' W 071°03'0 0.0
2017-Oct-13 13:27N 42°23' W 071°03'0 0.0
2017-Oct-13 12:57N 42°23' W 071°03'0 0.0
2017-Oct-13 12:30N 42°23' W 071°03'0 0.0
2017-Oct-13 12:00N 42°23' W 071°03'0 0.0
2017-Oct-13 11:30N 42°23' W 071°03'0 0.0
2017-Oct-13 11:00N 42°23' W 071°03'0 0.0
2017-Oct-13 10:30N 42°23' W 071°03'0 0.0
2017-Oct-13 10:00N 42°23' W 071°03'0 0.0
2017-Oct-13 09:30N 42°23' W 071°03'0 0.0
2017-Oct-13 09:00N 42°23' W 071°03'0 0.0
2017-Oct-13 08:30N 42°23' W 071°03'0 0.0
2017-Oct-13 08:00N 42°23' W 071°03'0 0.0
2017-Oct-13 07:30N 42°23' W 071°03'0 0.0
2017-Oct-13 07:00N 42°23' W 071°03'0 0.0
2017-Oct-13 06:30N 42°23' W 071°03'0 0.0
2017-Oct-13 06:00N 42°23' W 071°03'0 0.0
2017-Oct-13 05:30N 42°23' W 071°03'0 0.0
2017-Oct-13 05:00N 42°23' W 071°03'0 0.0
2017-Oct-13 04:30N 42°23' W 071°03'0 0.0
2017-Oct-13 04:00N 42°23' W 071°03'0 0.0
2017-Oct-13 03:30N 42°23' W 071°03'0 0.0
2017-Oct-13 03:00N 42°23' W 071°03'0 0.0
2017-Oct-13 02:30N 42°23' W 071°03'0 0.0
2017-Oct-13 02:00N 42°23' W 071°03'0 0.0
2017-Oct-13 01:30N 42°23' W 071°03'0 0.0
2017-Oct-13 01:00N 42°23' W 071°03'0 0.0
2017-Oct-13 00:30N 42°23' W 071°03'0 0.0
2017-Oct-13 00:00N 42°23' W 071°03'0 0.0
2017-Oct-12 23:30N 42°23' W 071°03'0 0.0
2017-Oct-12 23:00N 42°23' W 071°03'0 0.0
2017-Oct-12 22:30N 42°23' W 071°03'0 0.0
2017-Oct-12 22:00N 42°23' W 071°03'0 0.0
2017-Oct-12 21:30N 42°23' W 071°03'0 0.0
2017-Oct-12 21:00N 42°23' W 071°03'0 0.0
2017-Oct-12 20:30N 42°23' W 071°03'0 0.0
2017-Oct-12 20:00N 42°23' W 071°03'0 0.0
2017-Oct-12 19:30N 42°23' W 071°03'0 0.0
2017-Oct-12 19:00N 42°23' W 071°03'0 0.0
2017-Oct-12 18:30N 42°23' W 071°03'0 0.0
2017-Oct-12 18:00N 42°23' W 071°03'0 0.0
2017-Oct-12 17:30N 42°23' W 071°03'0 0.0
2017-Oct-12 17:00N 42°23' W 071°03'0 0.0
2017-Oct-12 16:30N 42°23' W 071°03'0 0.0
2017-Oct-12 16:00N 42°23' W 071°03'0 0.0
2017-Oct-12 15:21N 42°23' W 071°03'0 0.0
2017-Oct-12 15:00N 42°23' W 071°03'0 0.0
2017-Oct-12 14:27N 42°23' W 071°03'0 0.0
2017-Oct-12 14:00N 42°23' W 071°03'0 0.0
2017-Oct-12 13:30N 42°23' W 071°03'0 0.0
2017-Oct-12 13:00N 42°23' W 071°03'0 0.0
2017-Oct-12 12:30N 42°23' W 071°03'0 0.0
2017-Oct-12 12:00N 42°23' W 071°03'0 0.0
2017-Oct-12 11:30N 42°23' W 071°03'0 0.0
2017-Oct-12 11:00N 42°23' W 071°03'0 0.0
2017-Oct-12 10:27N 42°23' W 071°03'0 0.0
2017-Oct-12 10:00N 42°23' W 071°03'0 0.0
2017-Oct-12 09:30N 42°23' W 071°03'0 0.0
2017-Oct-12 09:00N 42°23' W 071°03'0 0.0
2017-Oct-12 08:30N 42°23' W 071°03'0 0.0
2017-Oct-12 08:00N 42°23' W 071°03'0 0.0
2017-Oct-12 07:27N 42°23' W 071°03'0 0.0
2017-Oct-12 07:00N 42°23' W 071°03'0 0.0
2017-Oct-12 06:30N 42°23' W 071°03'0 0.0
2017-Oct-12 06:00N 42°23' W 071°03'0 0.0
2017-Oct-12 05:30N 42°23' W 071°03'0 0.0
2017-Oct-12 05:00N 42°23' W 071°03'0 0.0
2017-Oct-12 04:30N 42°23' W 071°03'0 0.0
2017-Oct-12 04:00N 42°23' W 071°03'0 0.0
2017-Oct-12 03:30N 42°23' W 071°03'0 0.0
2017-Oct-12 03:00N 42°23' W 071°03'0 0.0
2017-Oct-12 02:30N 42°23' W 071°03'0 0.0
2017-Oct-12 02:00N 42°23' W 071°03'0 0.0
2017-Oct-12 01:27N 42°23' W 071°03'0 0.0
2017-Oct-12 01:00N 42°23' W 071°03'0 0.0
2017-Oct-12 00:30N 42°23' W 071°03'0 0.0
2017-Oct-12 00:00N 42°23' W 071°03'0 0.0
2017-Oct-11 23:30N 42°23' W 071°03'0 0.0
2017-Oct-11 22:57N 42°23' W 071°03'0 0.0
2017-Oct-11 22:30N 42°23' W 071°03'0 0.0
2017-Oct-11 22:00N 42°23' W 071°03'0 0.0
2017-Oct-11 21:30N 42°23' W 071°03'0 0.0
2017-Oct-11 21:00N 42°23' W 071°03'0 0.0
2017-Oct-11 20:30N 42°23' W 071°03'0 0.0
2017-Oct-11 20:00N 42°23' W 071°03'0 0.0
2017-Oct-11 19:30N 42°23' W 071°03'0 0.0
2017-Oct-11 19:00N 42°23' W 071°03'0 0.0
2017-Oct-11 18:30N 42°23' W 071°03'0 0.0
2017-Oct-11 18:00N 42°23' W 071°03'0 0.0
2017-Oct-11 17:30N 42°23' W 071°03'0 0.0
2017-Oct-11 17:00N 42°23' W 071°03'0 0.0
2017-Oct-11 00:00N 42°23' W 071°03'0 0.0
2017-Oct-10 23:30N 42°23' W 071°03'0 0.0
2017-Oct-10 23:00N 42°23' W 071°03'0 0.0
2017-Oct-10 22:30N 42°23' W 071°03'0 0.0
2017-Oct-10 22:00N 42°23' W 071°03'0 0.0
2017-Oct-10 21:30N 42°23' W 071°03'0 0.0
2017-Oct-10 21:00N 42°23' W 071°03'0 0.0
2017-Oct-10 20:30N 42°23' W 071°03'0 0.0
2017-Oct-10 20:00N 42°23' W 071°03'0 0.0
2017-Oct-10 19:30N 42°23' W 071°03'0 0.0
2017-Oct-10 19:00N 42°23' W 071°03'0 0.0
2017-Oct-10 18:30N 42°23' W 071°03'0 0.0
2017-Oct-10 18:00N 42°23' W 071°03'0 0.0
2017-Oct-10 17:30N 42°23' W 071°03'0 0.0
2017-Oct-10 17:00N 42°23' W 071°03'0 0.0
2017-Oct-10 16:30N 42°23' W 071°03'0 0.0
2017-Oct-10 16:00N 42°23' W 071°03'0 0.0
2017-Oct-10 15:30N 42°23' W 071°03'0 0.0
2017-Oct-10 15:00N 42°23' W 071°03'0 0.0
2017-Oct-10 14:00N 42°23' W 071°03'0 0.0
2017-Oct-10 13:30N 42°23' W 071°03'0 0.0
2017-Oct-10 13:00N 42°23' W 071°03'0 0.0
2017-Oct-10 12:27N 42°23' W 071°03'0 0.0
2017-Oct-10 12:00N 42°23' W 071°03'0 0.0
2017-Oct-10 11:30N 42°23' W 071°03'0 0.0
2017-Oct-10 10:57N 42°23' W 071°03'0 0.0
2017-Oct-10 10:30N 42°23' W 071°03'0 0.0
2017-Oct-10 10:00N 42°23' W 071°03'0 0.0
2017-Oct-10 09:30N 42°23' W 071°03'0 0.0
2017-Oct-10 09:00N 42°23' W 071°03'0 0.0
2017-Oct-10 08:30N 42°23' W 071°03'0 0.0
2017-Oct-10 08:00N 42°23' W 071°03'0 0.0
2017-Oct-10 07:30N 42°23' W 071°03'0 0.0
2017-Oct-10 07:00N 42°23' W 071°03'0 0.0
2017-Oct-10 06:30N 42°23' W 071°03'0 0.0
2017-Oct-10 06:00N 42°23' W 071°03'0 0.0
2017-Oct-10 05:31N 42°23' W 071°03'0 0.0
2017-Oct-10 04:57N 42°23' W 071°03'0 0.0
2017-Oct-10 04:30N 42°23' W 071°03'0 0.0
2017-Oct-10 04:00N 42°23' W 071°03'0 0.0
2017-Oct-10 03:30N 42°23' W 071°03'0 0.0
2017-Oct-10 02:54N 42°23' W 071°03'0 0.0
2017-Oct-10 02:30N 42°23' W 071°03'0 0.0
2017-Oct-10 01:57N 42°23' W 071°03'0 0.0
2017-Oct-10 01:30N 42°23' W 071°03'0 0.0
2017-Oct-10 01:00N 42°23' W 071°03'0 0.0
2017-Oct-10 00:30N 42°23' W 071°03'0 0.0
2017-Oct-09 23:57N 42°23' W 071°03'  

Dump ship's entire track history